sensor_id;sensor_type;location;lat;lon;timestamp;P1;durP1;ratioP1;P2;durP2;ratioP2
78053;SDS011;67726;45.636;11.752;2024-03-17T00:00:55;98.13;;;53.05;;
78053;SDS011;67726;45.636;11.752;2024-03-17T00:03:24;96.37;;;50.60;;
78053;SDS011;67726;45.636;11.752;2024-03-17T00:05:54;94.00;;;49.53;;
78053;SDS011;67726;45.636;11.752;2024-03-17T00:08:24;102.65;;;53.15;;
78053;SDS011;67726;45.636;11.752;2024-03-17T00:10:53;97.13;;;52.73;;
78053;SDS011;67726;45.636;11.752;2024-03-17T00:13:19;103.57;;;55.92;;
78053;SDS011;67726;45.636;11.752;2024-03-17T00:15:46;100.30;;;54.25;;
78053;SDS011;67726;45.636;11.752;2024-03-17T00:18:12;96.25;;;53.95;;
78053;SDS011;67726;45.636;11.752;2024-03-17T00:20:38;104.40;;;54.27;;
78053;SDS011;67726;45.636;11.752;2024-03-17T00:23:04;102.90;;;53.07;;
78053;SDS011;67726;45.636;11.752;2024-03-17T00:25:34;106.47;;;55.53;;
78053;SDS011;67726;45.636;11.752;2024-03-17T00:28:00;106.72;;;55.20;;
78053;SDS011;67726;45.636;11.752;2024-03-17T00:30:26;102.35;;;53.67;;
78053;SDS011;67726;45.636;11.752;2024-03-17T00:32:52;109.37;;;57.67;;
78053;SDS011;67726;45.636;11.752;2024-03-17T00:35:17;106.27;;;57.63;;
78053;SDS011;67726;45.636;11.752;2024-03-17T00:37:49;97.60;;;52.93;;
78053;SDS011;67726;45.636;11.752;2024-03-17T00:40:15;104.63;;;56.95;;
78053;SDS011;67726;45.636;11.752;2024-03-17T00:42:42;115.53;;;57.83;;
78053;SDS011;67726;45.636;11.752;2024-03-17T00:45:10;117.85;;;60.95;;
78053;SDS011;67726;45.636;11.752;2024-03-17T00:47:36;110.78;;;57.08;;
78053;SDS011;67726;45.636;11.752;2024-03-17T00:50:02;109.43;;;56.97;;
78053;SDS011;67726;45.636;11.752;2024-03-17T00:52:29;106.18;;;57.92;;
78053;SDS011;67726;45.636;11.752;2024-03-17T00:54:55;109.95;;;58.33;;
78053;SDS011;67726;45.636;11.752;2024-03-17T00:57:20;104.13;;;56.47;;
78053;SDS011;67726;45.636;11.752;2024-03-17T00:59:46;108.25;;;58.00;;
78053;SDS011;67726;45.636;11.752;2024-03-17T01:02:12;111.73;;;58.00;;
78053;SDS011;67726;45.636;11.752;2024-03-17T01:04:41;108.28;;;56.72;;
78053;SDS011;67726;45.636;11.752;2024-03-17T01:07:08;112.22;;;58.47;;
78053;SDS011;67726;45.636;11.752;2024-03-17T01:09:34;107.93;;;57.35;;
78053;SDS011;67726;45.636;11.752;2024-03-17T01:12:00;106.23;;;56.57;;
78053;SDS011;67726;45.636;11.752;2024-03-17T01:14:26;111.95;;;57.00;;
78053;SDS011;67726;45.636;11.752;2024-03-17T01:16:52;110.60;;;56.70;;
78053;SDS011;67726;45.636;11.752;2024-03-17T01:19:18;99.57;;;53.17;;
78053;SDS011;67726;45.636;11.752;2024-03-17T01:21:44;101.30;;;53.17;;
78053;SDS011;67726;45.636;11.752;2024-03-17T01:24:09;98.00;;;53.03;;
78053;SDS011;67726;45.636;11.752;2024-03-17T01:26:35;96.17;;;51.10;;
78053;SDS011;67726;45.636;11.752;2024-03-17T01:29:00;99.83;;;52.87;;
78053;SDS011;67726;45.636;11.752;2024-03-17T01:31:26;101.82;;;54.22;;
78053;SDS011;67726;45.636;11.752;2024-03-17T01:33:52;110.90;;;57.95;;
78053;SDS011;67726;45.636;11.752;2024-03-17T01:36:18;112.07;;;57.80;;
78053;SDS011;67726;45.636;11.752;2024-03-17T01:38:43;116.77;;;59.83;;
78053;SDS011;67726;45.636;11.752;2024-03-17T01:41:09;119.47;;;58.50;;
78053;SDS011;67726;45.636;11.752;2024-03-17T01:43:35;107.85;;;56.88;;
78053;SDS011;67726;45.636;11.752;2024-03-17T01:46:00;110.67;;;57.23;;
78053;SDS011;67726;45.636;11.752;2024-03-17T01:48:27;109.85;;;55.67;;
78053;SDS011;67726;45.636;11.752;2024-03-17T01:50:53;107.47;;;57.60;;
78053;SDS011;67726;45.636;11.752;2024-03-17T01:53:21;106.07;;;55.45;;
78053;SDS011;67726;45.636;11.752;2024-03-17T01:55:50;110.13;;;57.80;;
78053;SDS011;67726;45.636;11.752;2024-03-17T01:58:18;109.10;;;54.10;;
78053;SDS011;67726;45.636;11.752;2024-03-17T02:00:45;111.05;;;56.17;;
78053;SDS011;67726;45.636;11.752;2024-03-17T02:03:11;113.83;;;59.23;;
78053;SDS011;67726;45.636;11.752;2024-03-17T02:05:38;108.57;;;57.47;;
78053;SDS011;67726;45.636;11.752;2024-03-17T02:08:07;107.40;;;56.28;;
78053;SDS011;67726;45.636;11.752;2024-03-17T02:10:33;104.10;;;55.37;;
78053;SDS011;67726;45.636;11.752;2024-03-17T02:12:59;106.15;;;57.70;;
78053;SDS011;67726;45.636;11.752;2024-03-17T02:15:25;111.20;;;57.53;;
78053;SDS011;67726;45.636;11.752;2024-03-17T02:17:51;110.50;;;58.97;;
78053;SDS011;67726;45.636;11.752;2024-03-17T02:20:17;103.10;;;54.97;;
78053;SDS011;67726;45.636;11.752;2024-03-17T02:22:43;102.28;;;53.00;;
78053;SDS011;67726;45.636;11.752;2024-03-17T02:25:09;99.33;;;53.77;;
78053;SDS011;67726;45.636;11.752;2024-03-17T02:27:37;105.22;;;56.25;;
78053;SDS011;67726;45.636;11.752;2024-03-17T02:30:03;96.82;;;52.40;;
78053;SDS011;67726;45.636;11.752;2024-03-17T02:32:33;109.07;;;54.23;;
78053;SDS011;67726;45.636;11.752;2024-03-17T02:34:59;101.88;;;51.72;;
78053;SDS011;67726;45.636;11.752;2024-03-17T02:37:25;99.20;;;52.20;;
78053;SDS011;67726;45.636;11.752;2024-03-17T02:39:50;110.05;;;57.30;;
78053;SDS011;67726;45.636;11.752;2024-03-17T02:42:16;109.37;;;57.10;;
78053;SDS011;67726;45.636;11.752;2024-03-17T02:44:42;113.25;;;56.40;;
78053;SDS011;67726;45.636;11.752;2024-03-17T02:47:07;106.20;;;55.10;;
78053;SDS011;67726;45.636;11.752;2024-03-17T02:49:36;107.75;;;55.75;;
78053;SDS011;67726;45.636;11.752;2024-03-17T02:52:06;100.32;;;52.25;;
78053;SDS011;67726;45.636;11.752;2024-03-17T02:54:34;105.43;;;53.53;;
78053;SDS011;67726;45.636;11.752;2024-03-17T02:57:01;104.35;;;55.03;;
78053;SDS011;67726;45.636;11.752;2024-03-17T02:59:27;107.82;;;57.22;;
78053;SDS011;67726;45.636;11.752;2024-03-17T03:01:53;100.23;;;54.07;;
78053;SDS011;67726;45.636;11.752;2024-03-17T03:04:19;95.72;;;50.63;;
78053;SDS011;67726;45.636;11.752;2024-03-17T03:06:45;105.22;;;54.58;;
78053;SDS011;67726;45.636;11.752;2024-03-17T03:09:11;111.77;;;58.73;;
78053;SDS011;67726;45.636;11.752;2024-03-17T03:11:40;110.03;;;56.78;;
78053;SDS011;67726;45.636;11.752;2024-03-17T03:14:07;109.85;;;54.78;;
78053;SDS011;67726;45.636;11.752;2024-03-17T03:16:33;106.20;;;54.50;;
78053;SDS011;67726;45.636;11.752;2024-03-17T03:18:59;111.15;;;55.80;;
78053;SDS011;67726;45.636;11.752;2024-03-17T03:21:25;108.88;;;55.50;;
78053;SDS011;67726;45.636;11.752;2024-03-17T03:23:50;98.47;;;53.37;;
78053;SDS011;67726;45.636;11.752;2024-03-17T03:26:16;107.75;;;55.80;;
78053;SDS011;67726;45.636;11.752;2024-03-17T03:28:43;99.43;;;53.28;;
78053;SDS011;67726;45.636;11.752;2024-03-17T03:31:12;109.10;;;57.03;;
78053;SDS011;67726;45.636;11.752;2024-03-17T03:33:41;102.30;;;51.83;;
78053;SDS011;67726;45.636;11.752;2024-03-17T03:36:10;97.03;;;53.85;;
78053;SDS011;67726;45.636;11.752;2024-03-17T03:38:37;98.15;;;52.80;;
78053;SDS011;67726;45.636;11.752;2024-03-17T03:41:22;103.82;;;55.30;;
78053;SDS011;67726;45.636;11.752;2024-03-17T03:43:48;103.07;;;55.08;;
78053;SDS011;67726;45.636;11.752;2024-03-17T03:46:14;101.97;;;54.17;;
78053;SDS011;67726;45.636;11.752;2024-03-17T03:48:40;97.90;;;54.63;;
78053;SDS011;67726;45.636;11.752;2024-03-17T03:51:06;102.80;;;54.77;;
78053;SDS011;67726;45.636;11.752;2024-03-17T03:53:33;102.57;;;54.33;;
78053;SDS011;67726;45.636;11.752;2024-03-17T03:55:59;110.22;;;57.33;;
78053;SDS011;67726;45.636;11.752;2024-03-17T03:58:31;107.93;;;54.72;;
78053;SDS011;67726;45.636;11.752;2024-03-17T04:03:35;108.63;;;55.20;;
78053;SDS011;67726;45.636;11.752;2024-03-17T04:06:05;105.75;;;55.42;;
78053;SDS011;67726;45.636;11.752;2024-03-17T04:08:35;105.97;;;54.78;;
78053;SDS011;67726;45.636;11.752;2024-03-17T04:11:04;103.28;;;52.63;;
78053;SDS011;67726;45.636;11.752;2024-03-17T04:13:30;103.57;;;54.83;;
78053;SDS011;67726;45.636;11.752;2024-03-17T04:15:57;98.25;;;54.30;;
78053;SDS011;67726;45.636;11.752;2024-03-17T04:18:23;105.30;;;54.78;;
78053;SDS011;67726;45.636;11.752;2024-03-17T04:20:53;109.72;;;54.92;;
78053;SDS011;67726;45.636;11.752;2024-03-17T04:23:22;104.07;;;54.75;;
78053;SDS011;67726;45.636;11.752;2024-03-17T04:25:48;111.20;;;54.93;;
78053;SDS011;67726;45.636;11.752;2024-03-17T04:28:15;112.55;;;56.58;;
78053;SDS011;67726;45.636;11.752;2024-03-17T04:30:41;108.30;;;55.00;;
78053;SDS011;67726;45.636;11.752;2024-03-17T04:33:08;108.18;;;54.03;;
78053;SDS011;67726;45.636;11.752;2024-03-17T04:35:35;103.37;;;54.20;;
78053;SDS011;67726;45.636;11.752;2024-03-17T04:38:01;106.85;;;54.22;;
78053;SDS011;67726;45.636;11.752;2024-03-17T04:40:27;104.93;;;54.03;;
78053;SDS011;67726;45.636;11.752;2024-03-17T04:42:52;107.07;;;53.17;;
78053;SDS011;67726;45.636;11.752;2024-03-17T04:45:18;105.87;;;53.80;;
78053;SDS011;67726;45.636;11.752;2024-03-17T04:47:44;109.22;;;53.05;;
78053;SDS011;67726;45.636;11.752;2024-03-17T04:50:09;102.60;;;51.13;;
78053;SDS011;67726;45.636;11.752;2024-03-17T04:52:37;105.75;;;54.30;;
78053;SDS011;67726;45.636;11.752;2024-03-17T04:55:03;103.57;;;54.10;;
78053;SDS011;67726;45.636;11.752;2024-03-17T04:57:29;112.20;;;55.70;;
78053;SDS011;67726;45.636;11.752;2024-03-17T04:59:54;106.53;;;56.40;;
78053;SDS011;67726;45.636;11.752;2024-03-17T05:02:20;107.97;;;53.67;;
78053;SDS011;67726;45.636;11.752;2024-03-17T05:04:47;112.97;;;55.22;;
78053;SDS011;67726;45.636;11.752;2024-03-17T05:07:13;111.30;;;55.50;;
78053;SDS011;67726;45.636;11.752;2024-03-17T05:09:39;106.47;;;53.73;;
78053;SDS011;67726;45.636;11.752;2024-03-17T05:12:05;104.43;;;53.07;;
78053;SDS011;67726;45.636;11.752;2024-03-17T05:14:30;102.60;;;52.87;;
78053;SDS011;67726;45.636;11.752;2024-03-17T05:16:56;105.85;;;53.47;;
78053;SDS011;67726;45.636;11.752;2024-03-17T05:19:22;103.93;;;52.43;;
78053;SDS011;67726;45.636;11.752;2024-03-17T05:21:48;109.82;;;51.30;;
78053;SDS011;67726;45.636;11.752;2024-03-17T05:24:14;107.00;;;52.77;;
78053;SDS011;67726;45.636;11.752;2024-03-17T05:26:39;108.38;;;55.13;;
78053;SDS011;67726;45.636;11.752;2024-03-17T05:29:07;110.40;;;54.35;;
78053;SDS011;67726;45.636;11.752;2024-03-17T05:31:33;107.33;;;54.57;;
78053;SDS011;67726;45.636;11.752;2024-03-17T05:33:58;101.57;;;52.08;;
78053;SDS011;67726;45.636;11.752;2024-03-17T05:36:24;106.37;;;52.20;;
78053;SDS011;67726;45.636;11.752;2024-03-17T05:38:50;99.70;;;51.17;;
78053;SDS011;67726;45.636;11.752;2024-03-17T05:41:15;99.50;;;50.00;;
78053;SDS011;67726;45.636;11.752;2024-03-17T05:43:41;106.13;;;53.70;;
78053;SDS011;67726;45.636;11.752;2024-03-17T05:46:11;102.38;;;51.00;;
78053;SDS011;67726;45.636;11.752;2024-03-17T05:48:41;101.47;;;49.13;;
78053;SDS011;67726;45.636;11.752;2024-03-17T05:51:07;105.50;;;51.65;;
78053;SDS011;67726;45.636;11.752;2024-03-17T05:53:34;107.03;;;51.25;;
78053;SDS011;67726;45.636;11.752;2024-03-17T05:56:01;100.03;;;51.22;;
78053;SDS011;67726;45.636;11.752;2024-03-17T05:58:27;101.18;;;50.28;;
78053;SDS011;67726;45.636;11.752;2024-03-17T06:00:53;93.40;;;49.27;;
78053;SDS011;67726;45.636;11.752;2024-03-17T06:03:19;92.50;;;47.22;;
78053;SDS011;67726;45.636;11.752;2024-03-17T06:05:46;91.90;;;47.03;;
78053;SDS011;67726;45.636;11.752;2024-03-17T06:08:12;95.67;;;46.80;;
78053;SDS011;67726;45.636;11.752;2024-03-17T06:10:42;94.00;;;46.85;;
78053;SDS011;67726;45.636;11.752;2024-03-17T06:13:09;86.97;;;43.22;;
78053;SDS011;67726;45.636;11.752;2024-03-17T06:15:38;87.78;;;45.88;;
78053;SDS011;67726;45.636;11.752;2024-03-17T06:18:05;92.85;;;45.33;;
78053;SDS011;67726;45.636;11.752;2024-03-17T06:20:34;88.70;;;43.87;;
78053;SDS011;67726;45.636;11.752;2024-03-17T06:23:00;86.47;;;44.30;;
78053;SDS011;67726;45.636;11.752;2024-03-17T06:25:26;83.50;;;42.50;;
78053;SDS011;67726;45.636;11.752;2024-03-17T06:27:53;83.10;;;44.08;;
78053;SDS011;67726;45.636;11.752;2024-03-17T06:30:19;86.47;;;44.63;;
78053;SDS011;67726;45.636;11.752;2024-03-17T06:32:46;90.38;;;45.97;;
78053;SDS011;67726;45.636;11.752;2024-03-17T06:35:12;88.57;;;44.22;;
78053;SDS011;67726;45.636;11.752;2024-03-17T06:37:43;84.20;;;43.92;;
78053;SDS011;67726;45.636;11.752;2024-03-17T06:40:10;79.03;;;42.07;;
78053;SDS011;67726;45.636;11.752;2024-03-17T06:42:38;73.93;;;41.30;;
78053;SDS011;67726;45.636;11.752;2024-03-17T06:45:04;74.43;;;40.17;;
78053;SDS011;67726;45.636;11.752;2024-03-17T06:47:30;74.00;;;40.33;;
78053;SDS011;67726;45.636;11.752;2024-03-17T06:49:56;71.57;;;38.50;;
78053;SDS011;67726;45.636;11.752;2024-03-17T06:52:22;68.43;;;38.60;;
78053;SDS011;67726;45.636;11.752;2024-03-17T06:54:47;75.75;;;41.00;;
78053;SDS011;67726;45.636;11.752;2024-03-17T06:57:16;79.10;;;40.95;;
78053;SDS011;67726;45.636;11.752;2024-03-17T06:59:41;76.77;;;42.67;;
78053;SDS011;67726;45.636;11.752;2024-03-17T07:02:07;73.97;;;40.78;;
78053;SDS011;67726;45.636;11.752;2024-03-17T07:04:37;68.13;;;37.88;;
78053;SDS011;67726;45.636;11.752;2024-03-17T07:07:03;71.63;;;39.87;;
78053;SDS011;67726;45.636;11.752;2024-03-17T07:09:28;67.00;;;35.97;;
78053;SDS011;67726;45.636;11.752;2024-03-17T07:11:54;60.78;;;32.67;;
78053;SDS011;67726;45.636;11.752;2024-03-17T07:14:19;61.70;;;35.03;;
78053;SDS011;67726;45.636;11.752;2024-03-17T07:16:45;64.57;;;37.77;;
78053;SDS011;67726;45.636;11.752;2024-03-17T07:19:11;64.57;;;34.67;;
78053;SDS011;67726;45.636;11.752;2024-03-17T07:21:36;63.10;;;35.30;;
78053;SDS011;67726;45.636;11.752;2024-03-17T07:24:02;62.17;;;37.08;;
78053;SDS011;67726;45.636;11.752;2024-03-17T07:26:29;63.53;;;38.55;;
78053;SDS011;67726;45.636;11.752;2024-03-17T07:28:55;67.30;;;39.10;;
78053;SDS011;67726;45.636;11.752;2024-03-17T07:31:21;70.00;;;38.67;;
78053;SDS011;67726;45.636;11.752;2024-03-17T07:33:46;64.23;;;37.13;;
78053;SDS011;67726;45.636;11.752;2024-03-17T07:36:13;62.45;;;36.38;;
78053;SDS011;67726;45.636;11.752;2024-03-17T07:38:38;63.17;;;36.77;;
78053;SDS011;67726;45.636;11.752;2024-03-17T07:41:05;71.00;;;43.50;;
78053;SDS011;67726;45.636;11.752;2024-03-17T07:43:36;68.30;;;38.58;;
78053;SDS011;67726;45.636;11.752;2024-03-17T07:46:08;67.93;;;37.45;;
78053;SDS011;67726;45.636;11.752;2024-03-17T07:48:37;67.07;;;36.53;;
78053;SDS011;67726;45.636;11.752;2024-03-17T07:51:05;65.27;;;35.70;;
78053;SDS011;67726;45.636;11.752;2024-03-17T07:53:31;69.88;;;37.25;;
78053;SDS011;67726;45.636;11.752;2024-03-17T07:56:01;65.15;;;38.10;;
78053;SDS011;67726;45.636;11.752;2024-03-17T07:58:28;74.70;;;40.58;;
78053;SDS011;67726;45.636;11.752;2024-03-17T08:00:58;86.68;;;43.05;;
78053;SDS011;67726;45.636;11.752;2024-03-17T08:03:25;77.47;;;41.63;;
78053;SDS011;67726;45.636;11.752;2024-03-17T08:05:51;72.95;;;38.75;;
78053;SDS011;67726;45.636;11.752;2024-03-17T08:08:17;69.40;;;40.15;;
78053;SDS011;67726;45.636;11.752;2024-03-17T08:10:43;69.53;;;38.88;;
78053;SDS011;67726;45.636;11.752;2024-03-17T08:13:09;69.25;;;40.08;;
78053;SDS011;67726;45.636;11.752;2024-03-17T08:15:35;68.40;;;38.40;;
78053;SDS011;67726;45.636;11.752;2024-03-17T08:18:01;66.55;;;38.03;;
78053;SDS011;67726;45.636;11.752;2024-03-17T08:20:28;67.63;;;37.67;;
78053;SDS011;67726;45.636;11.752;2024-03-17T08:22:54;69.55;;;36.97;;
78053;SDS011;67726;45.636;11.752;2024-03-17T08:25:20;70.88;;;38.60;;
78053;SDS011;67726;45.636;11.752;2024-03-17T08:27:45;65.63;;;35.90;;
78053;SDS011;67726;45.636;11.752;2024-03-17T08:30:11;70.75;;;38.85;;
78053;SDS011;67726;45.636;11.752;2024-03-17T08:32:38;69.97;;;38.03;;
78053;SDS011;67726;45.636;11.752;2024-03-17T08:35:04;63.30;;;36.15;;
78053;SDS011;67726;45.636;11.752;2024-03-17T08:37:31;65.13;;;38.30;;
78053;SDS011;67726;45.636;11.752;2024-03-17T08:39:57;63.45;;;36.15;;
78053;SDS011;67726;45.636;11.752;2024-03-17T08:42:22;65.00;;;37.30;;
78053;SDS011;67726;45.636;11.752;2024-03-17T08:44:48;59.55;;;33.90;;
78053;SDS011;67726;45.636;11.752;2024-03-17T08:47:13;61.10;;;34.23;;
78053;SDS011;67726;45.636;11.752;2024-03-17T08:49:39;61.03;;;34.73;;
78053;SDS011;67726;45.636;11.752;2024-03-17T08:52:05;60.30;;;35.03;;
78053;SDS011;67726;45.636;11.752;2024-03-17T08:54:32;53.70;;;31.45;;
78053;SDS011;67726;45.636;11.752;2024-03-17T08:56:57;61.27;;;34.77;;
78053;SDS011;67726;45.636;11.752;2024-03-17T08:59:23;57.50;;;34.07;;
78053;SDS011;67726;45.636;11.752;2024-03-17T09:01:49;58.67;;;34.90;;
78053;SDS011;67726;45.636;11.752;2024-03-17T09:04:14;60.92;;;36.08;;
78053;SDS011;67726;45.636;11.752;2024-03-17T09:06:40;55.83;;;32.87;;
78053;SDS011;67726;45.636;11.752;2024-03-17T09:09:06;58.20;;;35.05;;
78053;SDS011;67726;45.636;11.752;2024-03-17T09:11:33;60.37;;;34.20;;
78053;SDS011;67726;45.636;11.752;2024-03-17T09:13:58;59.00;;;34.08;;
78053;SDS011;67726;45.636;11.752;2024-03-17T09:16:24;57.00;;;34.40;;
78053;SDS011;67726;45.636;11.752;2024-03-17T09:18:50;61.33;;;35.60;;
78053;SDS011;67726;45.636;11.752;2024-03-17T09:21:16;57.50;;;35.72;;
78053;SDS011;67726;45.636;11.752;2024-03-17T09:23:42;61.28;;;36.47;;
78053;SDS011;67726;45.636;11.752;2024-03-17T09:26:08;66.10;;;37.90;;
78053;SDS011;67726;45.636;11.752;2024-03-17T09:28:36;60.17;;;36.83;;
78053;SDS011;67726;45.636;11.752;2024-03-17T09:31:03;53.88;;;34.40;;
78053;SDS011;67726;45.636;11.752;2024-03-17T09:33:33;56.65;;;35.47;;
78053;SDS011;67726;45.636;11.752;2024-03-17T09:36:01;54.90;;;34.03;;
78053;SDS011;67726;45.636;11.752;2024-03-17T09:38:31;51.95;;;32.67;;
78053;SDS011;67726;45.636;11.752;2024-03-17T09:40:57;53.13;;;31.92;;
78053;SDS011;67726;45.636;11.752;2024-03-17T09:43:25;50.58;;;33.53;;
78053;SDS011;67726;45.636;11.752;2024-03-17T09:45:52;57.63;;;33.75;;
78053;SDS011;67726;45.636;11.752;2024-03-17T09:48:20;52.73;;;32.43;;
78053;SDS011;67726;45.636;11.752;2024-03-17T09:53:15;54.50;;;32.58;;
78053;SDS011;67726;45.636;11.752;2024-03-17T09:55:42;54.83;;;33.13;;
78053;SDS011;67726;45.636;11.752;2024-03-17T09:58:13;52.97;;;32.97;;
78053;SDS011;67726;45.636;11.752;2024-03-17T10:00:41;52.33;;;33.28;;
78053;SDS011;67726;45.636;11.752;2024-03-17T10:03:07;52.37;;;33.90;;
78053;SDS011;67726;45.636;11.752;2024-03-17T10:05:33;53.40;;;32.58;;
78053;SDS011;67726;45.636;11.752;2024-03-17T10:07:59;52.65;;;32.17;;
78053;SDS011;67726;45.636;11.752;2024-03-17T10:10:24;51.67;;;32.77;;
78053;SDS011;67726;45.636;11.752;2024-03-17T10:12:50;51.33;;;31.53;;
78053;SDS011;67726;45.636;11.752;2024-03-17T10:15:17;52.70;;;32.33;;
78053;SDS011;67726;45.636;11.752;2024-03-17T10:17:43;49.90;;;32.60;;
78053;SDS011;67726;45.636;11.752;2024-03-17T10:20:13;52.05;;;33.33;;
78053;SDS011;67726;45.636;11.752;2024-03-17T10:25:24;51.17;;;32.60;;
78053;SDS011;67726;45.636;11.752;2024-03-17T10:27:54;51.13;;;32.27;;
78053;SDS011;67726;45.636;11.752;2024-03-17T10:30:20;51.28;;;32.38;;
78053;SDS011;67726;45.636;11.752;2024-03-17T10:33:05;52.58;;;32.55;;
78053;SDS011;67726;45.636;11.752;2024-03-17T10:35:34;56.53;;;34.58;;
78053;SDS011;67726;45.636;11.752;2024-03-17T10:38:04;57.45;;;33.67;;
78053;SDS011;67726;45.636;11.752;2024-03-17T10:40:31;53.77;;;35.03;;
78053;SDS011;67726;45.636;11.752;2024-03-17T10:43:01;56.10;;;35.70;;
78053;SDS011;67726;45.636;11.752;2024-03-17T10:45:27;65.88;;;35.38;;
78053;SDS011;67726;45.636;11.752;2024-03-17T10:47:58;55.63;;;34.22;;
78053;SDS011;67726;45.636;11.752;2024-03-17T10:50:25;54.90;;;33.95;;
78053;SDS011;67726;45.636;11.752;2024-03-17T10:52:55;58.37;;;34.23;;
78053;SDS011;67726;45.636;11.752;2024-03-17T10:55:24;55.42;;;34.15;;
78053;SDS011;67726;45.636;11.752;2024-03-17T10:57:51;54.88;;;33.63;;
78053;SDS011;67726;45.636;11.752;2024-03-17T11:00:21;58.28;;;33.85;;
78053;SDS011;67726;45.636;11.752;2024-03-17T11:02:51;49.92;;;32.33;;
78053;SDS011;67726;45.636;11.752;2024-03-17T11:05:22;58.67;;;36.33;;
78053;SDS011;67726;45.636;11.752;2024-03-17T11:07:52;55.03;;;35.03;;
78053;SDS011;67726;45.636;11.752;2024-03-17T11:10:21;57.38;;;34.92;;
78053;SDS011;67726;45.636;11.752;2024-03-17T11:12:54;58.60;;;36.05;;
78053;SDS011;67726;45.636;11.752;2024-03-17T11:20:40;58.35;;;35.17;;
78053;SDS011;67726;45.636;11.752;2024-03-17T11:23:07;60.28;;;36.17;;
78053;SDS011;67726;45.636;11.752;2024-03-17T11:25:37;57.08;;;34.60;;
78053;SDS011;67726;45.636;11.752;2024-03-17T11:28:04;54.15;;;33.10;;
78053;SDS011;67726;45.636;11.752;2024-03-17T11:46:44;60.17;;;32.58;;
78053;SDS011;67726;45.636;11.752;2024-03-17T11:49:19;53.50;;;31.75;;
78053;SDS011;67726;45.636;11.752;2024-03-17T11:51:45;66.53;;;36.25;;
78053;SDS011;67726;45.636;11.752;2024-03-17T11:54:13;51.80;;;31.48;;
78053;SDS011;67726;45.636;11.752;2024-03-17T11:56:43;55.10;;;32.67;;
78053;SDS011;67726;45.636;11.752;2024-03-17T11:59:19;58.63;;;33.85;;
78053;SDS011;67726;45.636;11.752;2024-03-17T12:01:46;57.03;;;34.28;;
78053;SDS011;67726;45.636;11.752;2024-03-17T12:04:16;55.22;;;33.42;;
78053;SDS011;67726;45.636;11.752;2024-03-17T12:06:46;57.53;;;34.65;;
78053;SDS011;67726;45.636;11.752;2024-03-17T12:09:19;60.70;;;35.27;;
78053;SDS011;67726;45.636;11.752;2024-03-17T12:11:47;54.13;;;33.10;;
78053;SDS011;67726;45.636;11.752;2024-03-17T12:14:18;53.42;;;32.42;;
78053;SDS011;67726;45.636;11.752;2024-03-17T12:16:51;50.00;;;30.05;;
78053;SDS011;67726;45.636;11.752;2024-03-17T12:19:18;53.72;;;30.40;;
78053;SDS011;67726;45.636;11.752;2024-03-17T12:21:45;52.50;;;32.17;;
78053;SDS011;67726;45.636;11.752;2024-03-17T12:24:16;52.80;;;30.50;;
78053;SDS011;67726;45.636;11.752;2024-03-17T12:26:46;42.25;;;26.20;;
78053;SDS011;67726;45.636;11.752;2024-03-17T12:31:52;48.85;;;31.17;;
78053;SDS011;67726;45.636;11.752;2024-03-17T12:34:19;44.17;;;29.13;;
78053;SDS011;67726;45.636;11.752;2024-03-17T12:36:45;46.83;;;29.85;;
78053;SDS011;67726;45.636;11.752;2024-03-17T12:39:19;50.88;;;30.42;;
78053;SDS011;67726;45.636;11.752;2024-03-17T12:42:00;47.00;;;30.25;;
78053;SDS011;67726;45.636;11.752;2024-03-17T12:44:27;49.83;;;29.50;;
78053;SDS011;67726;45.636;11.752;2024-03-17T12:46:58;48.47;;;29.67;;
78053;SDS011;67726;45.636;11.752;2024-03-17T12:49:28;43.30;;;27.95;;
78053;SDS011;67726;45.636;11.752;2024-03-17T12:51:55;44.17;;;27.75;;
78053;SDS011;67726;45.636;11.752;2024-03-17T12:54:24;46.30;;;28.73;;
78053;SDS011;67726;45.636;11.752;2024-03-17T12:56:52;45.67;;;27.87;;
78053;SDS011;67726;45.636;11.752;2024-03-17T12:59:56;45.33;;;28.23;;
78053;SDS011;67726;45.636;11.752;2024-03-17T13:02:41;42.97;;;26.80;;
78053;SDS011;67726;45.636;11.752;2024-03-17T13:05:13;46.53;;;29.48;;
78053;SDS011;67726;45.636;11.752;2024-03-17T13:07:43;49.75;;;30.52;;
78053;SDS011;67726;45.636;11.752;2024-03-17T13:10:12;48.73;;;31.43;;
78053;SDS011;67726;45.636;11.752;2024-03-17T13:12:39;50.28;;;31.33;;
78053;SDS011;67726;45.636;11.752;2024-03-17T13:15:05;47.60;;;29.83;;
78053;SDS011;67726;45.636;11.752;2024-03-17T13:17:31;49.65;;;30.45;;
78053;SDS011;67726;45.636;11.752;2024-03-17T13:19:59;43.90;;;27.10;;
78053;SDS011;67726;45.636;11.752;2024-03-17T13:22:25;40.97;;;26.30;;
78053;SDS011;67726;45.636;11.752;2024-03-17T13:24:51;44.72;;;26.60;;
78053;SDS011;67726;45.636;11.752;2024-03-17T13:27:17;47.27;;;27.30;;
78053;SDS011;67726;45.636;11.752;2024-03-17T13:29:46;43.42;;;26.38;;
78053;SDS011;67726;45.636;11.752;2024-03-17T13:32:13;44.10;;;27.13;;
78053;SDS011;67726;45.636;11.752;2024-03-17T13:34:38;45.60;;;26.90;;
78053;SDS011;67726;45.636;11.752;2024-03-17T13:37:04;44.60;;;27.23;;
78053;SDS011;67726;45.636;11.752;2024-03-17T13:39:30;41.05;;;26.10;;
78053;SDS011;67726;45.636;11.752;2024-03-17T13:41:58;43.20;;;25.73;;
78053;SDS011;67726;45.636;11.752;2024-03-17T13:44:32;40.88;;;24.70;;
78053;SDS011;67726;45.636;11.752;2024-03-17T13:46:59;40.70;;;25.30;;
78053;SDS011;67726;45.636;11.752;2024-03-17T13:49:28;43.95;;;26.70;;
78053;SDS011;67726;45.636;11.752;2024-03-17T13:51:54;43.10;;;26.27;;
78053;SDS011;67726;45.636;11.752;2024-03-17T13:54:20;40.67;;;25.10;;
78053;SDS011;67726;45.636;11.752;2024-03-17T13:56:49;39.13;;;25.67;;
78053;SDS011;67726;45.636;11.752;2024-03-17T13:59:15;42.33;;;27.13;;
78053;SDS011;67726;45.636;11.752;2024-03-17T14:01:42;40.10;;;25.87;;
78053;SDS011;67726;45.636;11.752;2024-03-17T14:04:14;41.20;;;25.90;;
78053;SDS011;67726;45.636;11.752;2024-03-17T14:06:42;42.58;;;27.13;;
78053;SDS011;67726;45.636;11.752;2024-03-17T14:09:12;42.03;;;26.75;;
78053;SDS011;67726;45.636;11.752;2024-03-17T14:11:38;41.28;;;26.63;;
78053;SDS011;67726;45.636;11.752;2024-03-17T14:14:04;38.30;;;24.47;;
78053;SDS011;67726;45.636;11.752;2024-03-17T14:16:31;49.60;;;27.92;;
78053;SDS011;67726;45.636;11.752;2024-03-17T14:18:58;43.58;;;27.05;;
78053;SDS011;67726;45.636;11.752;2024-03-17T14:21:25;44.85;;;27.05;;
78053;SDS011;67726;45.636;11.752;2024-03-17T14:23:52;42.37;;;26.17;;
78053;SDS011;67726;45.636;11.752;2024-03-17T14:26:17;40.63;;;25.63;;
78053;SDS011;67726;45.636;11.752;2024-03-17T14:28:43;42.75;;;25.70;;
78053;SDS011;67726;45.636;11.752;2024-03-17T14:31:09;38.93;;;24.67;;
78053;SDS011;67726;45.636;11.752;2024-03-17T14:33:36;38.88;;;24.02;;
78053;SDS011;67726;45.636;11.752;2024-03-17T14:36:02;42.80;;;24.40;;